Antlers Park, Minnesota
Current Conditions -  °F | °C
As of 8:48 PM on Tuesday 21 Oct 2014 (Local Time) from KLVN Reporting Station
Clear Clear  
Wind Chill:   Ceiling: Unl
Heat Index:   Visibility: 10mi
Dew Point:   Wind: 7mph
Humidity: 76%   Direction: 130°SE
Pressure: 30.16"   Gusts: NA
Location:  44.6349°N, 93.283°W
Report Text: KLVN 220148Z AUTO 13006KT 10SM CLR 08/04 A3016 RMK AO2
Loading
Personal Weather Stations






























Interactive Weather Map
Tropical Storm Tracking
New forecast layout! Learn more

10-Day Weather Forecast

Advertisements
Track Severe Weather on mobile